ePrivacy and GPDR Cookie Consent by Cookie Consent
EmailTwitter


Surface observations / France / LFBO (07630)

Regions: Quebec | Canada | USA | Europe | France | UK | Elsewhere
Station
Display
Info & Location for LFBO (07630) | Help decoding METAR

Weather Conditions observed on 2021/12/06 at 00:00 UTC at TOULOUSE/BLAGNAC, FR (LFBO)

Sky conditions: overcast.

Temperature: 6.0 Celsius.

Dewpoint: 4.0 Celsius.

Relative Humidity: 87%

Windchill Factor 2.

Winds: West at 26 km/h or 14 knots.

Mean Sea level Pressure: 101.70 kilopascals.

Horizontal visibility: 6.21 statute miles or 9.94 kilometers.

Height of the Ceiling: 1768 metres ( 5800 feet ).

Coded METAR:

LFBO 060000Z AUTO 27014KT 9999 SCT036 SCT044 OVC058 06/04 Q1017 NOSIG=